St-Hubert, Belgium
Current Conditions -  °F | °C
As of 9:25 PM on Saturday 25 Oct 2014 (Local Time) from EBFS Reporting Station
Haze Haze  
Wind Chill: 10°   Ceiling: Unl
Heat Index: 10°   Visibility: 1.2mi
Dew Point: 10°   Wind: 1mph
Humidity: 100%   Direction: NA
Pressure: 30.21"   Gusts: NA
Location:  50.03°N, 5.4°E
Report Text: EBFS 251925Z VRB01KT 2000 BR FEW025 10/10 Q1023 YLO
Loading
Personal Weather Stations






























Interactive Weather Map
Tropical Storm Tracking
New forecast layout! Learn more

10-Day Weather Forecast

Advertisements
Track Severe Weather on mobile